Kimberly Turecamo — WDC6838 — position and weather

sailwx.info

Track history (hours):
 
Tides and Currents Weather Stations Pressure Air Temp Water Temp Dewpoint Dewpoint Depression Visibility Wind Speed Wind Dir Waves Ship Positions

Kimberly Turecamo

Owner: Moran Towing Corporation, New Canaan, CT. More information available from US FCC via Universal Licensing System and Coast Guard Vessel Documentation Center.

Last reported at 2016-Aug-27 02:33 UTC. Time now 2016-Aug-27 02:53 UTC.
Position N 40°45' W 073°58'.

Length 31 m; draft 5 m.

Type: Tug. MMSI: 367061980.

Date/timePositionNaut miles runAvg speedWind from/ knotsBaromVisibWave heightAir tempDewpointWater temp
2016-Aug-27 02:33N 40°45' W 073°58'5 0.4
2016-Aug-26 15:17N 40°48' W 073°54'5 7.1
2016-Aug-26 14:33N 40°44' W 073°58'6 5.9
2016-Aug-26 13:33N 40°39' W 074°03'4 1.7
2016-Aug-26 11:11N 40°38' W 074°08'2 2.5
2016-Aug-26 10:33N 40°40' W 074°09'2 1.8
2016-Aug-26 09:33N 40°39' W 074°07'1 0.7
2016-Aug-26 08:24N 40°38' W 074°08'0 0.0
2016-Aug-26 04:29N 40°38' W 074°08'0 0.0
2016-Aug-26 03:30N 40°38' W 074°08'3 2.9
2016-Aug-26 02:33N 40°41' W 074°09'2 2.0
2016-Aug-26 01:33N 40°39' W 074°09'2 1.2
2016-Aug-25 23:33N 40°39' W 074°06'2 2.2
2016-Aug-25 22:31N 40°39' W 074°03'0 0.0
2016-Aug-25 21:31N 40°39' W 074°03'0 0.0
2016-Aug-25 20:34N 40°39' W 074°03'4 4.0
2016-Aug-25 19:33N 40°38' W 074°08'2 2.2
2016-Aug-25 18:33N 40°39' W 074°05'2 1.6
2016-Aug-25 17:33N 40°39' W 074°07'1 0.6
2016-Aug-25 16:32N 40°38' W 074°08'1 0.8
2016-Aug-25 15:33N 40°39' W 074°09'3 2.2
2016-Aug-25 14:04N 40°37' W 074°12'3 4.4
2016-Aug-25 13:21N 40°39' W 074°09'4 5.5
2016-Aug-25 12:34N 40°38' W 074°03'4 4.4
2016-Aug-25 11:34N 40°40' W 074°08'1 0.5
2016-Aug-25 10:33N 40°41' W 074°09'2 2.2
2016-Aug-25 09:32N 40°39' W 074°08'3 2.8
2016-Aug-25 08:33N 40°39' W 074°05'8 7.6
2016-Aug-25 07:32N 40°34' W 074°13'2 0.4
2016-Aug-25 03:18N 40°33' W 074°15'0 0.2
2016-Aug-25 02:28N 40°33' W 074°14'7 7.4
2016-Aug-25 01:34N 40°39' W 074°09'1 1.0
2016-Aug-25 00:33N 40°38' W 074°08'4 4.2
2016-Aug-24 23:34N 40°40' W 074°03'2 1.8
2016-Aug-24 22:34N 40°41' W 074°01'6 6.4
2016-Aug-24 21:34N 40°39' W 074°08'4 0.7
2016-Aug-24 16:34N 40°36' W 074°12'7 6.6
2016-Aug-24 15:34N 40°39' W 074°04'2 1.6
2016-Aug-24 14:33N 40°39' W 074°06'1 1.0
2016-Aug-24 13:18N 40°38' W 074°08'0 0.0
2016-Aug-24 12:33N 40°38' W 074°08'0 0.0
2016-Aug-24 11:33N 40°38' W 074°08'0 0.0
2016-Aug-24 10:33N 40°38' W 074°08'0 0.0
2016-Aug-24 09:33N 40°38' W 074°08'0 0.0
2016-Aug-24 08:33N 40°38' W 074°08'0 0.0
2016-Aug-24 07:30N 40°38' W 074°08'0 0.0
2016-Aug-24 06:33N 40°38' W 074°08'3 1.4
2016-Aug-24 04:34N 40°39' W 074°04'1 1.0
2016-Aug-24 03:34N 40°39' W 074°06'2 1.8
2016-Aug-24 02:34N 40°38' W 074°08'0 0.0
2016-Aug-23 23:33N 40°38' W 074°08'0 0.0
2016-Aug-23 21:06N 40°38' W 074°08'0 0.0
2016-Aug-23 20:18N 40°38' W 074°08'0 0.0
2016-Aug-23 19:06N 40°38' W 074°08'0 0.0
2016-Aug-23 16:21N 40°38' W 074°08'0 0.0
2016-Aug-23 15:33N 40°38' W 074°08'0 0.0
2016-Aug-23 14:25N 40°38' W 074°08'2 0.7
2016-Aug-23 11:34N 40°39' W 074°05'0 0.0
2016-Aug-23 10:34N 40°39' W 074°05'2 2.3
2016-Aug-23 09:34N 40°39' W 074°02'0 0.1
2016-Aug-23 08:31N 40°39' W 074°02'0 0.0
2016-Aug-23 07:31N 40°39' W 074°02'0 0.1
2016-Aug-23 06:31N 40°40' W 074°02'0 0.1
2016-Aug-23 05:31N 40°40' W 074°02'0 0.0
2016-Aug-23 04:31N 40°40' W 074°02'0 0.0
2016-Aug-23 03:31N 40°40' W 074°02'0 0.1
2016-Aug-23 02:31N 40°39' W 074°02'0 0.1
2016-Aug-23 01:31N 40°39' W 074°02'0 0.0
2016-Aug-23 00:31N 40°39' W 074°02'0 0.0
2016-Aug-22 23:31N 40°39' W 074°02'0 0.0
2016-Aug-22 22:28N 40°39' W 074°02'0 0.0
2016-Aug-22 21:31N 40°39' W 074°02'0 0.0
2016-Aug-22 20:31N 40°39' W 074°02'0 0.0
2016-Aug-22 19:31N 40°39' W 074°02'0 0.0
2016-Aug-22 18:31N 40°39' W 074°02'0 0.1
2016-Aug-22 17:31N 40°39' W 074°02'0 0.1
2016-Aug-22 16:31N 40°40' W 074°02'0 0.1
2016-Aug-22 15:31N 40°40' W 074°02'0 0.0
2016-Aug-22 14:31N 40°39' W 074°02'0 0.0
2016-Aug-22 13:28N 40°39' W 074°02'0 0.1
2016-Aug-22 12:31N 40°39' W 074°02'0 0.0
2016-Aug-22 11:31N 40°39' W 074°02'0 0.1
2016-Aug-22 10:31N 40°39' W 074°02'0 0.0
2016-Aug-22 09:31N 40°39' W 074°02'0 0.0
2016-Aug-22 08:31N 40°39' W 074°02'0 0.0
2016-Aug-22 07:34N 40°39' W 074°02'0 0.0
2016-Aug-22 06:31N 40°39' W 074°02'0 0.1
2016-Aug-22 05:33N 40°39' W 074°02'0 0.1
2016-Aug-22 04:33N 40°40' W 074°02'0 0.0
2016-Aug-22 03:33N 40°40' W 074°02'0 0.0
2016-Aug-22 02:33N 40°40' W 074°02'0 0.0
2016-Aug-22 01:33N 40°40' W 074°02'0 0.0
2016-Aug-22 00:30N 40°40' W 074°02'0 0.1
2016-Aug-21 23:33N 40°39' W 074°02'0 0.0
2016-Aug-21 22:33N 40°39' W 074°02'0 0.0
2016-Aug-21 21:30N 40°39' W 074°02'0 0.0
2016-Aug-21 20:33N 40°39' W 074°02'0 0.0
2016-Aug-21 19:24N 40°39' W 074°02'0 0.1
2016-Aug-21 18:33N 40°39' W 074°02'0 0.0
2016-Aug-21 17:33N 40°40' W 074°03'0 0.1
2016-Aug-21 16:33N 40°40' W 074°02'0 0.1
2016-Aug-21 15:33N 40°40' W 074°02'0 0.0
2016-Aug-21 14:33N 40°40' W 074°02'0 0.0
2016-Aug-21 13:33N 40°40' W 074°02'0 0.0
2016-Aug-21 12:33N 40°40' W 074°02'0 0.1
2016-Aug-21 11:33N 40°40' W 074°02'0 0.1
2016-Aug-21 10:30N 40°39' W 074°03'0 0.0
2016-Aug-21 09:33N 40°39' W 074°02'0 0.0
2016-Aug-21 08:30N 40°39' W 074°02'0 0.0
2016-Aug-21 07:33N 40°39' W 074°02'0 0.0
2016-Aug-21 06:33N 40°39' W 074°02'0 0.0
2016-Aug-21 05:33N 40°39' W 074°02'0 0.1
2016-Aug-21 04:33N 40°40' W 074°02'0 0.1
2016-Aug-21 03:33N 40°40' W 074°02'0 0.0
2016-Aug-21 02:33N 40°40' W 074°02'0 0.0
2016-Aug-21 01:33N 40°40' W 074°02'0 0.0
2016-Aug-21 00:33N 40°40' W 074°02'0 0.0
2016-Aug-20 23:33N 40°40' W 074°02'0 0.1
2016-Aug-20 22:33N 40°39' W 074°03'0 0.1
2016-Aug-20 21:33N 40°39' W 074°02'0 0.0
2016-Aug-20 20:33N 40°39' W 074°02'0 0.0
2016-Aug-20 19:33N 40°39' W 074°02'0 0.0
2016-Aug-20 18:29N 40°39' W 074°02'0 0.0
2016-Aug-20 17:32N 40°39' W 074°02'0 0.1
2016-Aug-20 16:32N 40°40' W 074°02'0 0.1
2016-Aug-20 15:32N 40°40' W 074°02'0 0.0
2016-Aug-20 14:32N 40°40' W 074°02'0 0.0
2016-Aug-20 13:32N 40°40' W 074°02'0 0.0
2016-Aug-20 12:32N 40°40' W 074°02'0 0.1
2016-Aug-20 11:32N 40°40' W 074°02'0 0.1
2016-Aug-20 10:32N 40°39' W 074°02'0 0.0
2016-Aug-20 09:32N 40°39' W 074°02'0 0.0
2016-Aug-20 08:32N 40°39' W 074°02'0 0.0
2016-Aug-20 07:32N 40°39' W 074°02'0 0.0
2016-Aug-20 06:32N 40°39' W 074°02'0 0.0
2016-Aug-20 05:32N 40°39' W 074°02'0 0.0
2016-Aug-20 04:32N 40°39' W 074°02'0 0.1
2016-Aug-20 03:32N 40°40' W 074°02'0 0.0
2016-Aug-20 02:32N 40°40' W 074°02'0 0.0
2016-Aug-20 01:32N 40°40' W 074°02'0 0.0
2016-Aug-20 00:32N 40°40' W 074°02'0 0.0
2016-Aug-19 23:32N 40°40' W 074°02'0 0.1
2016-Aug-19 22:32N 40°40' W 074°02'0 0.2
2016-Aug-19 21:33N 40°39' W 074°02'0 0.0
2016-Aug-19 20:33N 40°39' W 074°02'0 0.0
2016-Aug-19 19:33N 40°39' W 074°02'0 0.0
2016-Aug-19 18:33N 40°39' W 074°02'0 0.0
2016-Aug-19 17:33N 40°39' W 074°02'4 3.9
2016-Aug-19 16:30N 40°38' W 074°08'0 0.0
2016-Aug-19 15:30N 40°38' W 074°08'0 0.0
2016-Aug-19 14:30N 40°38' W 074°08'0 0.0
2016-Aug-19 13:33N 40°38' W 074°08'4 4.1
2016-Aug-19 12:31N 40°40' W 074°02'0 0.0
2016-Aug-19 11:31N 40°40' W 074°02'0 0.1
2016-Aug-19 10:33N 40°40' W 074°02'0 0.1
2016-Aug-19 09:33N 40°39' W 074°03'0 0.1
2016-Aug-19 08:33N 40°39' W 074°02'0 0.0
2016-Aug-19 07:33N 40°39' W 074°02'0 0.0
2016-Aug-19 06:33N 40°39' W 074°02'0 0.0
2016-Aug-19 05:33N 40°39' W 074°02'0 0.0
2016-Aug-19 04:33N 40°39' W 074°02'0 0.1
2016-Aug-19 03:33N 40°39' W 074°02'5 4.9
2016-Aug-19 02:33N 40°35' W 074°02'37 6.2
2016-Aug-18 20:33N 39°58' W 073°56'7 7.0
2016-Aug-18 19:33N 39°51' W 073°57'7 6.8
2016-Aug-18 18:32N 39°44' W 073°58'7 6.8
2016-Aug-18 17:33N 39°37' W 074°00'7 6.5
2016-Aug-18 16:33N 39°32' W 074°06'22 6.8
2016-Aug-18 13:19N 39°15' W 074°23'5 6.8
2016-Aug-18 12:33N 39°11' W 074°28'7 7.0
2016-Aug-18 11:33N 39°05' W 074°33'7 6.8
2016-Aug-18 10:32N 39°01' W 074°40'6 6.5
2016-Aug-18 09:33N 38°56' W 074°45'7 6.3
2016-Aug-18 08:31N 38°50' W 074°50'6 6.5
2016-Aug-18 07:34N 38°48' W 074°58'7 6.7
2016-Aug-18 06:33N 38°53' W 075°04'3 3.5
2016-Aug-18 05:34N 38°56' W 075°06'9 9.2
2016-Aug-18 04:33N 39°05' W 075°11'9 8.4
2016-Aug-18 03:32N 39°12' W 075°17'7 6.9
2016-Aug-18 02:33N 39°17' W 075°22'6 5.5
2016-Aug-18 01:33N 39°21' W 075°27'5 5.3
2016-Aug-18 00:33N 39°25' W 075°31'6 5.5
2016-Aug-17 23:33N 39°31' W 075°33'7 7.4
2016-Aug-17 22:33N 39°38' W 075°35'8 7.8
2016-Aug-17 21:33N 39°45' W 075°30'8 8.4
2016-Aug-17 20:33N 39°50' W 075°22'8 7.7
2016-Aug-17 19:33N 39°53' W 075°12'6 5.9
2016-Aug-17 18:33N 39°58' W 075°08'3 3.1
2016-Aug-17 17:33N 39°59' W 075°04'7 7.5
2016-Aug-17 16:33N 39°53' W 075°11'0 0.0
2016-Aug-17 15:33N 39°53' W 075°11'0 0.0
2016-Aug-17 14:33N 39°53' W 075°11'0 0.0
2016-Aug-17 13:33N 39°53' W 075°11'0 0.0
2016-Aug-17 12:33N 39°53' W 075°11'0 0.0
2016-Aug-17 11:33N 39°53' W 075°11'0 0.0
2016-Aug-17 10:33N 39°53' W 075°11'0 0.0
2016-Aug-17 09:33N 39°53' W 075°11'0 0.0
2016-Aug-17 08:33N 39°53' W 075°11'0 0.0
2016-Aug-17 07:33N 39°53' W 075°11'0 0.0
2016-Aug-17 06:33N 39°53' W 075°11'0 0.0
2016-Aug-17 05:34N 39°53' W 075°11'0 0.0
2016-Aug-17 04:33N 39°53' W 075°11'0 0.0
2016-Aug-17 03:33N 39°53' W 075°11'0 0.0
2016-Aug-17 02:33N 39°53' W 075°11'  
Track history (hours):
 
Tides and Currents Weather Stations Pressure Air Temp Water Temp Dewpoint Dewpoint Depression Visibility Wind Speed Wind Dir Waves Ship Positions

Kimberly Turecamo

Owner: Moran Towing Corporation, New Canaan, CT. More information available from US FCC via Universal Licensing System and Coast Guard Vessel Documentation Center.

Last reported at 2016-Aug-27 02:33 UTC. Time now 2016-Aug-27 02:53 UTC.
Position N 40°45' W 073°58'.

Length 31 m; draft 5 m.

Type: Tug. MMSI: 367061980.

Date/timePositionNaut miles runAvg speedWind from/ knotsBaromVisibWave heightAir tempDewpointWater temp
2016-Aug-27 02:33N 40°45' W 073°58'5 0.4
2016-Aug-26 15:17N 40°48' W 073°54'5 7.1
2016-Aug-26 14:33N 40°44' W 073°58'6 5.9
2016-Aug-26 13:33N 40°39' W 074°03'4 1.7
2016-Aug-26 11:11N 40°38' W 074°08'2 2.5
2016-Aug-26 10:33N 40°40' W 074°09'2 1.8
2016-Aug-26 09:33N 40°39' W 074°07'1 0.7
2016-Aug-26 08:24N 40°38' W 074°08'0 0.0
2016-Aug-26 04:29N 40°38' W 074°08'0 0.0
2016-Aug-26 03:30N 40°38' W 074°08'3 2.9
2016-Aug-26 02:33N 40°41' W 074°09'2 2.0
2016-Aug-26 01:33N 40°39' W 074°09'2 1.2
2016-Aug-25 23:33N 40°39' W 074°06'2 2.2
2016-Aug-25 22:31N 40°39' W 074°03'0 0.0
2016-Aug-25 21:31N 40°39' W 074°03'0 0.0
2016-Aug-25 20:34N 40°39' W 074°03'4 4.0
2016-Aug-25 19:33N 40°38' W 074°08'2 2.2
2016-Aug-25 18:33N 40°39' W 074°05'2 1.6
2016-Aug-25 17:33N 40°39' W 074°07'1 0.6
2016-Aug-25 16:32N 40°38' W 074°08'1 0.8
2016-Aug-25 15:33N 40°39' W 074°09'3 2.2
2016-Aug-25 14:04N 40°37' W 074°12'3 4.4
2016-Aug-25 13:21N 40°39' W 074°09'4 5.5
2016-Aug-25 12:34N 40°38' W 074°03'4 4.4
2016-Aug-25 11:34N 40°40' W 074°08'1 0.5
2016-Aug-25 10:33N 40°41' W 074°09'2 2.2
2016-Aug-25 09:32N 40°39' W 074°08'3 2.8
2016-Aug-25 08:33N 40°39' W 074°05'8 7.6
2016-Aug-25 07:32N 40°34' W 074°13'2 0.4
2016-Aug-25 03:18N 40°33' W 074°15'0 0.2
2016-Aug-25 02:28N 40°33' W 074°14'7 7.4
2016-Aug-25 01:34N 40°39' W 074°09'1 1.0
2016-Aug-25 00:33N 40°38' W 074°08'4 4.2
2016-Aug-24 23:34N 40°40' W 074°03'2 1.8
2016-Aug-24 22:34N 40°41' W 074°01'6 6.4
2016-Aug-24 21:34N 40°39' W 074°08'4 0.7
2016-Aug-24 16:34N 40°36' W 074°12'7 6.6
2016-Aug-24 15:34N 40°39' W 074°04'2 1.6
2016-Aug-24 14:33N 40°39' W 074°06'1 1.0
2016-Aug-24 13:18N 40°38' W 074°08'0 0.0
2016-Aug-24 12:33N 40°38' W 074°08'0 0.0
2016-Aug-24 11:33N 40°38' W 074°08'0 0.0
2016-Aug-24 10:33N 40°38' W 074°08'0 0.0
2016-Aug-24 09:33N 40°38' W 074°08'0 0.0
2016-Aug-24 08:33N 40°38' W 074°08'0 0.0
2016-Aug-24 07:30N 40°38' W 074°08'0 0.0
2016-Aug-24 06:33N 40°38' W 074°08'3 1.4
2016-Aug-24 04:34N 40°39' W 074°04'1 1.0
2016-Aug-24 03:34N 40°39' W 074°06'2 1.8
2016-Aug-24 02:34N 40°38' W 074°08'0 0.0
2016-Aug-23 23:33N 40°38' W 074°08'0 0.0
2016-Aug-23 21:06N 40°38' W 074°08'0 0.0
2016-Aug-23 20:18N 40°38' W 074°08'0 0.0
2016-Aug-23 19:06N 40°38' W 074°08'0 0.0
2016-Aug-23 16:21N 40°38' W 074°08'0 0.0
2016-Aug-23 15:33N 40°38' W 074°08'0 0.0
2016-Aug-23 14:25N 40°38' W 074°08'2 0.7
2016-Aug-23 11:34N 40°39' W 074°05'0 0.0
2016-Aug-23 10:34N 40°39' W 074°05'2 2.3
2016-Aug-23 09:34N 40°39' W 074°02'0 0.1
2016-Aug-23 08:31N 40°39' W 074°02'0 0.0
2016-Aug-23 07:31N 40°39' W 074°02'0 0.1
2016-Aug-23 06:31N 40°40' W 074°02'0 0.1
2016-Aug-23 05:31N 40°40' W 074°02'0 0.0
2016-Aug-23 04:31N 40°40' W 074°02'0 0.0
2016-Aug-23 03:31N 40°40' W 074°02'0 0.1
2016-Aug-23 02:31N 40°39' W 074°02'0 0.1
2016-Aug-23 01:31N 40°39' W 074°02'0 0.0
2016-Aug-23 00:31N 40°39' W 074°02'0 0.0
2016-Aug-22 23:31N 40°39' W 074°02'0 0.0
2016-Aug-22 22:28N 40°39' W 074°02'0 0.0
2016-Aug-22 21:31N 40°39' W 074°02'0 0.0
2016-Aug-22 20:31N 40°39' W 074°02'0 0.0
2016-Aug-22 19:31N 40°39' W 074°02'0 0.0
2016-Aug-22 18:31N 40°39' W 074°02'0 0.1
2016-Aug-22 17:31N 40°39' W 074°02'0 0.1
2016-Aug-22 16:31N 40°40' W 074°02'0 0.1
2016-Aug-22 15:31N 40°40' W 074°02'0 0.0
2016-Aug-22 14:31N 40°39' W 074°02'0 0.0
2016-Aug-22 13:28N 40°39' W 074°02'0 0.1
2016-Aug-22 12:31N 40°39' W 074°02'0 0.0
2016-Aug-22 11:31N 40°39' W 074°02'0 0.1
2016-Aug-22 10:31N 40°39' W 074°02'0 0.0
2016-Aug-22 09:31N 40°39' W 074°02'0 0.0
2016-Aug-22 08:31N 40°39' W 074°02'0 0.0
2016-Aug-22 07:34N 40°39' W 074°02'0 0.0
2016-Aug-22 06:31N 40°39' W 074°02'0 0.1
2016-Aug-22 05:33N 40°39' W 074°02'0 0.1
2016-Aug-22 04:33N 40°40' W 074°02'0 0.0
2016-Aug-22 03:33N 40°40' W 074°02'0 0.0
2016-Aug-22 02:33N 40°40' W 074°02'0 0.0
2016-Aug-22 01:33N 40°40' W 074°02'0 0.0
2016-Aug-22 00:30N 40°40' W 074°02'0 0.1
2016-Aug-21 23:33N 40°39' W 074°02'0 0.0
2016-Aug-21 22:33N 40°39' W 074°02'0 0.0
2016-Aug-21 21:30N 40°39' W 074°02'0 0.0
2016-Aug-21 20:33N 40°39' W 074°02'0 0.0
2016-Aug-21 19:24N 40°39' W 074°02'0 0.1
2016-Aug-21 18:33N 40°39' W 074°02'0 0.0
2016-Aug-21 17:33N 40°40' W 074°03'0 0.1
2016-Aug-21 16:33N 40°40' W 074°02'0 0.1
2016-Aug-21 15:33N 40°40' W 074°02'0 0.0
2016-Aug-21 14:33N 40°40' W 074°02'0 0.0
2016-Aug-21 13:33N 40°40' W 074°02'0 0.0
2016-Aug-21 12:33N 40°40' W 074°02'0 0.1
2016-Aug-21 11:33N 40°40' W 074°02'0 0.1
2016-Aug-21 10:30N 40°39' W 074°03'0 0.0
2016-Aug-21 09:33N 40°39' W 074°02'0 0.0
2016-Aug-21 08:30N 40°39' W 074°02'0 0.0
2016-Aug-21 07:33N 40°39' W 074°02'0 0.0
2016-Aug-21 06:33N 40°39' W 074°02'0 0.0
2016-Aug-21 05:33N 40°39' W 074°02'0 0.1
2016-Aug-21 04:33N 40°40' W 074°02'0 0.1
2016-Aug-21 03:33N 40°40' W 074°02'0 0.0
2016-Aug-21 02:33N 40°40' W 074°02'0 0.0
2016-Aug-21 01:33N 40°40' W 074°02'0 0.0
2016-Aug-21 00:33N 40°40' W 074°02'0 0.0
2016-Aug-20 23:33N 40°40' W 074°02'0 0.1
2016-Aug-20 22:33N 40°39' W 074°03'0 0.1
2016-Aug-20 21:33N 40°39' W 074°02'0 0.0
2016-Aug-20 20:33N 40°39' W 074°02'0 0.0
2016-Aug-20 19:33N 40°39' W 074°02'0 0.0
2016-Aug-20 18:29N 40°39' W 074°02'0 0.0
2016-Aug-20 17:32N 40°39' W 074°02'0 0.1
2016-Aug-20 16:32N 40°40' W 074°02'0 0.1
2016-Aug-20 15:32N 40°40' W 074°02'0 0.0
2016-Aug-20 14:32N 40°40' W 074°02'0 0.0
2016-Aug-20 13:32N 40°40' W 074°02'0 0.0
2016-Aug-20 12:32N 40°40' W 074°02'0 0.1
2016-Aug-20 11:32N 40°40' W 074°02'0 0.1
2016-Aug-20 10:32N 40°39' W 074°02'0 0.0
2016-Aug-20 09:32N 40°39' W 074°02'0 0.0
2016-Aug-20 08:32N 40°39' W 074°02'0 0.0
2016-Aug-20 07:32N 40°39' W 074°02'0 0.0
2016-Aug-20 06:32N 40°39' W 074°02'0 0.0
2016-Aug-20 05:32N 40°39' W 074°02'0 0.0
2016-Aug-20 04:32N 40°39' W 074°02'0 0.1
2016-Aug-20 03:32N 40°40' W 074°02'0 0.0
2016-Aug-20 02:32N 40°40' W 074°02'0 0.0
2016-Aug-20 01:32N 40°40' W 074°02'0 0.0
2016-Aug-20 00:32N 40°40' W 074°02'0 0.0
2016-Aug-19 23:32N 40°40' W 074°02'0 0.1
2016-Aug-19 22:32N 40°40' W 074°02'0 0.2
2016-Aug-19 21:33N 40°39' W 074°02'0 0.0
2016-Aug-19 20:33N 40°39' W 074°02'0 0.0
2016-Aug-19 19:33N 40°39' W 074°02'0 0.0
2016-Aug-19 18:33N 40°39' W 074°02'0 0.0
2016-Aug-19 17:33N 40°39' W 074°02'4 3.9
2016-Aug-19 16:30N 40°38' W 074°08'0 0.0
2016-Aug-19 15:30N 40°38' W 074°08'0 0.0
2016-Aug-19 14:30N 40°38' W 074°08'0 0.0
2016-Aug-19 13:33N 40°38' W 074°08'4 4.1
2016-Aug-19 12:31N 40°40' W 074°02'0 0.0
2016-Aug-19 11:31N 40°40' W 074°02'0 0.1
2016-Aug-19 10:33N 40°40' W 074°02'0 0.1
2016-Aug-19 09:33N 40°39' W 074°03'0 0.1
2016-Aug-19 08:33N 40°39' W 074°02'0 0.0
2016-Aug-19 07:33N 40°39' W 074°02'0 0.0
2016-Aug-19 06:33N 40°39' W 074°02'0 0.0
2016-Aug-19 05:33N 40°39' W 074°02'0 0.0
2016-Aug-19 04:33N 40°39' W 074°02'0 0.1
2016-Aug-19 03:33N 40°39' W 074°02'5 4.9
2016-Aug-19 02:33N 40°35' W 074°02'37 6.2
2016-Aug-18 20:33N 39°58' W 073°56'7 7.0
2016-Aug-18 19:33N 39°51' W 073°57'7 6.8
2016-Aug-18 18:32N 39°44' W 073°58'7 6.8
2016-Aug-18 17:33N 39°37' W 074°00'7 6.5
2016-Aug-18 16:33N 39°32' W 074°06'22 6.8
2016-Aug-18 13:19N 39°15' W 074°23'5 6.8
2016-Aug-18 12:33N 39°11' W 074°28'7 7.0
2016-Aug-18 11:33N 39°05' W 074°33'7 6.8
2016-Aug-18 10:32N 39°01' W 074°40'6 6.5
2016-Aug-18 09:33N 38°56' W 074°45'7 6.3
2016-Aug-18 08:31N 38°50' W 074°50'6 6.5
2016-Aug-18 07:34N 38°48' W 074°58'7 6.7
2016-Aug-18 06:33N 38°53' W 075°04'3 3.5
2016-Aug-18 05:34N 38°56' W 075°06'9 9.2
2016-Aug-18 04:33N 39°05' W 075°11'9 8.4
2016-Aug-18 03:32N 39°12' W 075°17'7 6.9
2016-Aug-18 02:33N 39°17' W 075°22'6 5.5
2016-Aug-18 01:33N 39°21' W 075°27'5 5.3
2016-Aug-18 00:33N 39°25' W 075°31'6 5.5
2016-Aug-17 23:33N 39°31' W 075°33'7 7.4
2016-Aug-17 22:33N 39°38' W 075°35'8 7.8
2016-Aug-17 21:33N 39°45' W 075°30'8 8.4
2016-Aug-17 20:33N 39°50' W 075°22'8 7.7
2016-Aug-17 19:33N 39°53' W 075°12'6 5.9
2016-Aug-17 18:33N 39°58' W 075°08'3 3.1
2016-Aug-17 17:33N 39°59' W 075°04'7 7.5
2016-Aug-17 16:33N 39°53' W 075°11'0 0.0
2016-Aug-17 15:33N 39°53' W 075°11'0 0.0
2016-Aug-17 14:33N 39°53' W 075°11'0 0.0
2016-Aug-17 13:33N 39°53' W 075°11'0 0.0
2016-Aug-17 12:33N 39°53' W 075°11'0 0.0
2016-Aug-17 11:33N 39°53' W 075°11'0 0.0
2016-Aug-17 10:33N 39°53' W 075°11'0 0.0
2016-Aug-17 09:33N 39°53' W 075°11'0 0.0
2016-Aug-17 08:33N 39°53' W 075°11'0 0.0
2016-Aug-17 07:33N 39°53' W 075°11'0 0.0
2016-Aug-17 06:33N 39°53' W 075°11'0 0.0
2016-Aug-17 05:34N 39°53' W 075°11'0 0.0
2016-Aug-17 04:33N 39°53' W 075°11'0 0.0
2016-Aug-17 03:33N 39°53' W 075°11'0 0.0
2016-Aug-17 02:33N 39°53' W 075°11'  

Dump ship's entire track history